sensor_id;sensor_type;location;lat;lon;timestamp;P1;durP1;ratioP1;P2;durP2;ratioP2
18136;SDS011;9194;42.632;23.298;2023-08-07T00:02:36;2.15;;;1.30;;
18136;SDS011;9194;42.632;23.298;2023-08-07T00:07:37;1.35;;;1.30;;
18136;SDS011;9194;42.632;23.298;2023-08-07T00:12:38;1.60;;;1.42;;
18136;SDS011;9194;42.632;23.298;2023-08-07T00:17:39;1.40;;;1.30;;
18136;SDS011;9194;42.632;23.298;2023-08-07T00:22:41;1.33;;;1.25;;
18136;SDS011;9194;42.632;23.298;2023-08-07T00:27:42;1.40;;;1.40;;
18136;SDS011;9194;42.632;23.298;2023-08-07T00:32:44;1.23;;;1.20;;
18136;SDS011;9194;42.632;23.298;2023-08-07T00:37:45;2.15;;;1.05;;
18136;SDS011;9194;42.632;23.298;2023-08-07T00:42:46;1.23;;;1.23;;
18136;SDS011;9194;42.632;23.298;2023-08-07T00:47:47;1.05;;;0.95;;
18136;SDS011;9194;42.632;23.298;2023-08-07T00:52:48;4.72;;;1.20;;
18136;SDS011;9194;42.632;23.298;2023-08-07T00:57:50;1.65;;;1.55;;
18136;SDS011;9194;42.632;23.298;2023-08-07T01:02:51;1.10;;;1.10;;
18136;SDS011;9194;42.632;23.298;2023-08-07T01:07:54;4.97;;;1.73;;
18136;SDS011;9194;42.632;23.298;2023-08-07T01:13:00;1.42;;;1.40;;
18136;SDS011;9194;42.632;23.298;2023-08-07T01:18:09;2.05;;;1.60;;
18136;SDS011;9194;42.632;23.298;2023-08-07T01:23:11;2.35;;;1.70;;
18136;SDS011;9194;42.632;23.298;2023-08-07T01:33:31;1.88;;;1.77;;
18136;SDS011;9194;42.632;23.298;2023-08-07T01:38:35;1.70;;;1.60;;
18136;SDS011;9194;42.632;23.298;2023-08-07T01:43:38;1.90;;;1.60;;
18136;SDS011;9194;42.632;23.298;2023-08-07T01:48:39;1.50;;;1.50;;
18136;SDS011;9194;42.632;23.298;2023-08-07T01:53:40;1.90;;;1.80;;
18136;SDS011;9194;42.632;23.298;2023-08-07T01:58:41;1.75;;;1.65;;
18136;SDS011;9194;42.632;23.298;2023-08-07T02:03:43;2.58;;;1.70;;
18136;SDS011;9194;42.632;23.298;2023-08-07T02:08:44;3.38;;;2.00;;
18136;SDS011;9194;42.632;23.298;2023-08-07T02:13:46;2.25;;;2.15;;
18136;SDS011;9194;42.632;23.298;2023-08-07T02:18:48;2.00;;;1.90;;
18136;SDS011;9194;42.632;23.298;2023-08-07T02:23:49;2.53;;;2.20;;
18136;SDS011;9194;42.632;23.298;2023-08-07T02:28:50;4.55;;;2.10;;
18136;SDS011;9194;42.632;23.298;2023-08-07T02:33:51;2.40;;;2.17;;
18136;SDS011;9194;42.632;23.298;2023-08-07T02:38:52;2.67;;;2.10;;
18136;SDS011;9194;42.632;23.298;2023-08-07T02:43:55;2.17;;;2.03;;
18136;SDS011;9194;42.632;23.298;2023-08-07T02:48:56;2.15;;;2.05;;
18136;SDS011;9194;42.632;23.298;2023-08-07T02:53:58;2.13;;;1.95;;
18136;SDS011;9194;42.632;23.298;2023-08-07T02:58:59;4.38;;;2.25;;
18136;SDS011;9194;42.632;23.298;2023-08-07T03:04:02;2.38;;;2.28;;
18136;SDS011;9194;42.632;23.298;2023-08-07T03:09:03;2.63;;;2.42;;
18136;SDS011;9194;42.632;23.298;2023-08-07T03:14:04;2.90;;;2.63;;
18136;SDS011;9194;42.632;23.298;2023-08-07T03:19:06;2.75;;;2.55;;
18136;SDS011;9194;42.632;23.298;2023-08-07T03:24:07;2.60;;;2.40;;
18136;SDS011;9194;42.632;23.298;2023-08-07T03:29:09;3.55;;;2.33;;
18136;SDS011;9194;42.632;23.298;2023-08-07T03:34:12;3.10;;;2.90;;
18136;SDS011;9194;42.632;23.298;2023-08-07T03:39:13;3.20;;;2.75;;
18136;SDS011;9194;42.632;23.298;2023-08-07T03:44:15;2.92;;;2.72;;
18136;SDS011;9194;42.632;23.298;2023-08-07T03:49:16;3.08;;;2.88;;
18136;SDS011;9194;42.632;23.298;2023-08-07T03:54:17;3.13;;;2.92;;
18136;SDS011;9194;42.632;23.298;2023-08-07T03:59:19;2.72;;;2.58;;
18136;SDS011;9194;42.632;23.298;2023-08-07T04:04:20;3.03;;;2.83;;
18136;SDS011;9194;42.632;23.298;2023-08-07T04:09:21;3.53;;;3.22;;
18136;SDS011;9194;42.632;23.298;2023-08-07T04:14:22;3.55;;;3.28;;
18136;SDS011;9194;42.632;23.298;2023-08-07T04:19:23;3.13;;;2.92;;
18136;SDS011;9194;42.632;23.298;2023-08-07T04:24:25;3.80;;;3.40;;
18136;SDS011;9194;42.632;23.298;2023-08-07T04:29:26;2.80;;;2.70;;
18136;SDS011;9194;42.632;23.298;2023-08-07T04:34:27;2.97;;;2.78;;
18136;SDS011;9194;42.632;23.298;2023-08-07T04:39:29;5.55;;;3.50;;
18136;SDS011;9194;42.632;23.298;2023-08-07T04:44:31;2.85;;;2.75;;
18136;SDS011;9194;42.632;23.298;2023-08-07T04:49:32;3.20;;;3.00;;
18136;SDS011;9194;42.632;23.298;2023-08-07T04:54:34;3.17;;;2.97;;
18136;SDS011;9194;42.632;23.298;2023-08-07T04:59:35;4.50;;;3.15;;
18136;SDS011;9194;42.632;23.298;2023-08-07T05:04:36;3.00;;;2.80;;
18136;SDS011;9194;42.632;23.298;2023-08-07T05:09:38;2.78;;;2.58;;
18136;SDS011;9194;42.632;23.298;2023-08-07T05:14:39;3.30;;;2.92;;
18136;SDS011;9194;42.632;23.298;2023-08-07T05:19:40;3.45;;;3.20;;
18136;SDS011;9194;42.632;23.298;2023-08-07T05:24:41;3.45;;;3.15;;
18136;SDS011;9194;42.632;23.298;2023-08-07T05:29:44;2.95;;;2.65;;
18136;SDS011;9194;42.632;23.298;2023-08-07T05:34:45;3.40;;;3.20;;
18136;SDS011;9194;42.632;23.298;2023-08-07T05:39:46;3.22;;;3.03;;
18136;SDS011;9194;42.632;23.298;2023-08-07T05:44:48;2.90;;;2.80;;
18136;SDS011;9194;42.632;23.298;2023-08-07T05:49:49;2.80;;;2.60;;
18136;SDS011;9194;42.632;23.298;2023-08-07T05:54:50;3.05;;;2.88;;
18136;SDS011;9194;42.632;23.298;2023-08-07T05:59:52;3.30;;;3.00;;
18136;SDS011;9194;42.632;23.298;2023-08-07T06:04:53;3.00;;;2.88;;
18136;SDS011;9194;42.632;23.298;2023-08-07T06:09:55;3.40;;;3.17;;
18136;SDS011;9194;42.632;23.298;2023-08-07T06:14:56;3.67;;;3.33;;
18136;SDS011;9194;42.632;23.298;2023-08-07T06:19:57;2.88;;;2.67;;
18136;SDS011;9194;42.632;23.298;2023-08-07T06:24:58;4.22;;;2.97;;
18136;SDS011;9194;42.632;23.298;2023-08-07T06:30:00;3.05;;;2.85;;
18136;SDS011;9194;42.632;23.298;2023-08-07T06:35:01;5.28;;;2.78;;
18136;SDS011;9194;42.632;23.298;2023-08-07T06:40:02;2.90;;;2.70;;
18136;SDS011;9194;42.632;23.298;2023-08-07T06:45:04;2.60;;;2.30;;
18136;SDS011;9194;42.632;23.298;2023-08-07T06:50:06;1.70;;;1.60;;
18136;SDS011;9194;42.632;23.298;2023-08-07T06:55:07;1.98;;;1.40;;
18136;SDS011;9194;42.632;23.298;2023-08-07T07:00:09;1.77;;;1.67;;
18136;SDS011;9194;42.632;23.298;2023-08-07T07:05:11;1.60;;;1.50;;
18136;SDS011;9194;42.632;23.298;2023-08-07T07:10:13;4.00;;;1.35;;
18136;SDS011;9194;42.632;23.298;2023-08-07T07:15:15;1.90;;;1.80;;
18136;SDS011;9194;42.632;23.298;2023-08-07T07:20:16;2.45;;;1.85;;
18136;SDS011;9194;42.632;23.298;2023-08-07T07:25:17;2.10;;;1.60;;
18136;SDS011;9194;42.632;23.298;2023-08-07T07:30:18;3.03;;;2.08;;
18136;SDS011;9194;42.632;23.298;2023-08-07T07:35:19;2.03;;;1.70;;
18136;SDS011;9194;42.632;23.298;2023-08-07T07:40:21;2.58;;;2.05;;
18136;SDS011;9194;42.632;23.298;2023-08-07T07:45:22;1.80;;;1.70;;
18136;SDS011;9194;42.632;23.298;2023-08-07T07:50:23;2.25;;;1.60;;
18136;SDS011;9194;42.632;23.298;2023-08-07T07:55:24;1.55;;;1.45;;
18136;SDS011;9194;42.632;23.298;2023-08-07T08:00:26;1.40;;;1.40;;
18136;SDS011;9194;42.632;23.298;2023-08-07T08:05:28;1.60;;;1.50;;
18136;SDS011;9194;42.632;23.298;2023-08-07T08:10:29;3.83;;;1.60;;
18136;SDS011;9194;42.632;23.298;2023-08-07T08:15:30;1.65;;;1.38;;
18136;SDS011;9194;42.632;23.298;2023-08-07T08:20:31;2.20;;;1.30;;
18136;SDS011;9194;42.632;23.298;2023-08-07T08:25:33;2.50;;;1.70;;
18136;SDS011;9194;42.632;23.298;2023-08-07T08:30:34;1.10;;;1.10;;
18136;SDS011;9194;42.632;23.298;2023-08-07T08:35:36;2.97;;;1.30;;
18136;SDS011;9194;42.632;23.298;2023-08-07T08:40:37;4.75;;;1.52;;
18136;SDS011;9194;42.632;23.298;2023-08-07T08:45:39;24.73;;;2.80;;
18136;SDS011;9194;42.632;23.298;2023-08-07T08:50:42;1.60;;;1.50;;
18136;SDS011;9194;42.632;23.298;2023-08-07T08:55:44;1.25;;;1.25;;
18136;SDS011;9194;42.632;23.298;2023-08-07T09:00:48;2.00;;;1.67;;
18136;SDS011;9194;42.632;23.298;2023-08-07T09:05:49;1.67;;;1.58;;
18136;SDS011;9194;42.632;23.298;2023-08-07T09:10:52;5.90;;;1.63;;
18136;SDS011;9194;42.632;23.298;2023-08-07T09:15:54;4.18;;;1.65;;
18136;SDS011;9194;42.632;23.298;2023-08-07T09:20:59;1.40;;;1.40;;
18136;SDS011;9194;42.632;23.298;2023-08-07T09:26:01;1.55;;;1.50;;
18136;SDS011;9194;42.632;23.298;2023-08-07T09:31:07;1.60;;;1.50;;
18136;SDS011;9194;42.632;23.298;2023-08-07T09:36:10;4.00;;;1.60;;
18136;SDS011;9194;42.632;23.298;2023-08-07T09:41:17;8.80;;;1.70;;
18136;SDS011;9194;42.632;23.298;2023-08-07T09:46:19;2.45;;;1.60;;
18136;SDS011;9194;42.632;23.298;2023-08-07T09:51:21;1.52;;;1.42;;
18136;SDS011;9194;42.632;23.298;2023-08-07T09:56:22;1.75;;;1.48;;
18136;SDS011;9194;42.632;23.298;2023-08-07T10:01:23;1.50;;;1.50;;
18136;SDS011;9194;42.632;23.298;2023-08-07T10:06:26;1.45;;;1.30;;
18136;SDS011;9194;42.632;23.298;2023-08-07T10:11:28;1.90;;;1.80;;
18136;SDS011;9194;42.632;23.298;2023-08-07T10:16:30;1.63;;;1.50;;
18136;SDS011;9194;42.632;23.298;2023-08-07T10:21:32;1.58;;;1.58;;
18136;SDS011;9194;42.632;23.298;2023-08-07T10:26:37;2.85;;;2.22;;
18136;SDS011;9194;42.632;23.298;2023-08-07T10:31:42;2.30;;;1.42;;
18136;SDS011;9194;42.632;23.298;2023-08-07T10:36:45;1.63;;;1.52;;
18136;SDS011;9194;42.632;23.298;2023-08-07T10:41:47;2.30;;;1.40;;
18136;SDS011;9194;42.632;23.298;2023-08-07T10:46:54;1.65;;;1.20;;
18136;SDS011;9194;42.632;23.298;2023-08-07T10:52:01;1.13;;;1.13;;
18136;SDS011;9194;42.632;23.298;2023-08-07T10:57:04;1.30;;;1.20;;
18136;SDS011;9194;42.632;23.298;2023-08-07T11:02:11;1.85;;;1.05;;
18136;SDS011;9194;42.632;23.298;2023-08-07T11:07:22;3.03;;;1.30;;
18136;SDS011;9194;42.632;23.298;2023-08-07T11:12:25;3.65;;;1.48;;
18136;SDS011;9194;42.632;23.298;2023-08-07T11:17:27;1.20;;;1.20;;
18136;SDS011;9194;42.632;23.298;2023-08-07T11:22:29;2.40;;;1.30;;
18136;SDS011;9194;42.632;23.298;2023-08-07T11:27:31;1.20;;;1.17;;
18136;SDS011;9194;42.632;23.298;2023-08-07T11:32:32;7.68;;;1.65;;
18136;SDS011;9194;42.632;23.298;2023-08-07T11:37:33;3.03;;;1.30;;
18136;SDS011;9194;42.632;23.298;2023-08-07T11:42:34;2.38;;;1.20;;
18136;SDS011;9194;42.632;23.298;2023-08-07T11:47:35;1.85;;;1.40;;
18136;SDS011;9194;42.632;23.298;2023-08-07T11:52:37;1.73;;;1.23;;
18136;SDS011;9194;42.632;23.298;2023-08-07T11:57:40;5.45;;;1.50;;
18136;SDS011;9194;42.632;23.298;2023-08-07T12:02:43;1.52;;;1.35;;
18136;SDS011;9194;42.632;23.298;2023-08-07T12:07:46;4.97;;;2.78;;
18136;SDS011;9194;42.632;23.298;2023-08-07T12:12:48;1.92;;;1.30;;
18136;SDS011;9194;42.632;23.298;2023-08-07T12:17:49;5.82;;;1.67;;
18136;SDS011;9194;42.632;23.298;2023-08-07T12:22:50;2.58;;;1.40;;
18136;SDS011;9194;42.632;23.298;2023-08-07T12:27:51;2.10;;;1.45;;
18136;SDS011;9194;42.632;23.298;2023-08-07T12:32:53;2.70;;;1.48;;
18136;SDS011;9194;42.632;23.298;2023-08-07T12:37:54;1.50;;;1.50;;
18136;SDS011;9194;42.632;23.298;2023-08-07T12:42:55;1.25;;;1.25;;
18136;SDS011;9194;42.632;23.298;2023-08-07T12:47:57;1.30;;;1.23;;
18136;SDS011;9194;42.632;23.298;2023-08-07T12:52:58;1.50;;;1.40;;
18136;SDS011;9194;42.632;23.298;2023-08-07T12:58:00;1.27;;;1.27;;
18136;SDS011;9194;42.632;23.298;2023-08-07T13:03:01;1.63;;;1.60;;
18136;SDS011;9194;42.632;23.298;2023-08-07T13:08:02;2.83;;;1.80;;
18136;SDS011;9194;42.632;23.298;2023-08-07T13:13:04;1.40;;;1.40;;
18136;SDS011;9194;42.632;23.298;2023-08-07T13:18:06;3.40;;;1.60;;
18136;SDS011;9194;42.632;23.298;2023-08-07T13:23:07;1.80;;;1.70;;
18136;SDS011;9194;42.632;23.298;2023-08-07T13:28:08;5.35;;;1.67;;
18136;SDS011;9194;42.632;23.298;2023-08-07T13:33:09;3.00;;;1.70;;
18136;SDS011;9194;42.632;23.298;2023-08-07T13:38:10;4.63;;;1.70;;
18136;SDS011;9194;42.632;23.298;2023-08-07T13:43:13;1.58;;;1.40;;
18136;SDS011;9194;42.632;23.298;2023-08-07T13:48:14;1.98;;;1.40;;
18136;SDS011;9194;42.632;23.298;2023-08-07T13:53:16;15.52;;;3.95;;
18136;SDS011;9194;42.632;23.298;2023-08-07T13:58:17;2.03;;;1.52;;
18136;SDS011;9194;42.632;23.298;2023-08-07T14:03:18;1.90;;;1.80;;
18136;SDS011;9194;42.632;23.298;2023-08-07T14:08:20;5.15;;;1.67;;
18136;SDS011;9194;42.632;23.298;2023-08-07T14:13:21;2.45;;;1.73;;
18136;SDS011;9194;42.632;23.298;2023-08-07T14:18:22;6.78;;;1.67;;
18136;SDS011;9194;42.632;23.298;2023-08-07T14:23:23;3.10;;;1.67;;
18136;SDS011;9194;42.632;23.298;2023-08-07T14:28:25;3.88;;;1.83;;
18136;SDS011;9194;42.632;23.298;2023-08-07T14:33:28;1.23;;;1.23;;
18136;SDS011;9194;42.632;23.298;2023-08-07T14:38:29;2.40;;;1.50;;
18136;SDS011;9194;42.632;23.298;2023-08-07T14:43:30;3.17;;;1.60;;
18136;SDS011;9194;42.632;23.298;2023-08-07T14:48:32;2.65;;;1.80;;
18136;SDS011;9194;42.632;23.298;2023-08-07T14:53:33;1.92;;;1.83;;
18136;SDS011;9194;42.632;23.298;2023-08-07T14:58:35;4.30;;;1.60;;
18136;SDS011;9194;42.632;23.298;2023-08-07T15:03:37;1.70;;;1.60;;
18136;SDS011;9194;42.632;23.298;2023-08-07T15:08:38;1.42;;;1.33;;
18136;SDS011;9194;42.632;23.298;2023-08-07T15:13:39;4.70;;;1.70;;
18136;SDS011;9194;42.632;23.298;2023-08-07T15:18:41;4.20;;;1.63;;
18136;SDS011;9194;42.632;23.298;2023-08-07T15:23:42;2.22;;;1.95;;
18136;SDS011;9194;42.632;23.298;2023-08-07T15:28:43;1.55;;;1.48;;
18136;SDS011;9194;42.632;23.298;2023-08-07T15:33:46;1.92;;;1.83;;
18136;SDS011;9194;42.632;23.298;2023-08-07T15:38:50;3.42;;;1.80;;
18136;SDS011;9194;42.632;23.298;2023-08-07T15:43:51;2.92;;;1.75;;
18136;SDS011;9194;42.632;23.298;2023-08-07T15:48:53;1.98;;;1.58;;
18136;SDS011;9194;42.632;23.298;2023-08-07T15:53:56;1.70;;;1.60;;
18136;SDS011;9194;42.632;23.298;2023-08-07T15:58:58;5.32;;;1.55;;
18136;SDS011;9194;42.632;23.298;2023-08-07T16:03:59;4.82;;;1.70;;
18136;SDS011;9194;42.632;23.298;2023-08-07T16:09:00;1.58;;;1.50;;
18136;SDS011;9194;42.632;23.298;2023-08-07T16:14:02;5.72;;;1.67;;
18136;SDS011;9194;42.632;23.298;2023-08-07T16:19:03;4.05;;;1.80;;
18136;SDS011;9194;42.632;23.298;2023-08-07T16:24:04;3.10;;;1.67;;
18136;SDS011;9194;42.632;23.298;2023-08-07T16:29:06;1.60;;;1.50;;
18136;SDS011;9194;42.632;23.298;2023-08-07T16:34:07;2.45;;;1.58;;
18136;SDS011;9194;42.632;23.298;2023-08-07T16:39:09;2.80;;;1.70;;
18136;SDS011;9194;42.632;23.298;2023-08-07T16:44:11;2.65;;;1.80;;
18136;SDS011;9194;42.632;23.298;2023-08-07T16:49:12;3.50;;;1.40;;
18136;SDS011;9194;42.632;23.298;2023-08-07T16:54:13;1.90;;;1.73;;
18136;SDS011;9194;42.632;23.298;2023-08-07T16:59:14;1.92;;;1.83;;
18136;SDS011;9194;42.632;23.298;2023-08-07T17:04:15;3.45;;;1.98;;
18136;SDS011;9194;42.632;23.298;2023-08-07T17:09:17;1.77;;;1.67;;
18136;SDS011;9194;42.632;23.298;2023-08-07T17:14:19;8.77;;;3.15;;
18136;SDS011;9194;42.632;23.298;2023-08-07T17:19:21;3.60;;;1.77;;
18136;SDS011;9194;42.632;23.298;2023-08-07T17:24:22;1.65;;;1.40;;
18136;SDS011;9194;42.632;23.298;2023-08-07T17:29:23;2.67;;;1.27;;
18136;SDS011;9194;42.632;23.298;2023-08-07T17:34:24;2.42;;;1.40;;
18136;SDS011;9194;42.632;23.298;2023-08-07T17:39:26;1.25;;;1.20;;
18136;SDS011;9194;42.632;23.298;2023-08-07T17:44:27;5.35;;;1.42;;
18136;SDS011;9194;42.632;23.298;2023-08-07T17:49:28;4.20;;;1.60;;
18136;SDS011;9194;42.632;23.298;2023-08-07T17:54:29;3.17;;;1.60;;
18136;SDS011;9194;42.632;23.298;2023-08-07T17:59:30;1.52;;;1.48;;
18136;SDS011;9194;42.632;23.298;2023-08-07T18:04:32;3.25;;;1.30;;
18136;SDS011;9194;42.632;23.298;2023-08-07T18:09:33;1.58;;;1.48;;
18136;SDS011;9194;42.632;23.298;2023-08-07T18:14:34;4.55;;;1.55;;
18136;SDS011;9194;42.632;23.298;2023-08-07T18:19:35;1.45;;;1.35;;
18136;SDS011;9194;42.632;23.298;2023-08-07T18:24:37;2.85;;;1.52;;
18136;SDS011;9194;42.632;23.298;2023-08-07T18:29:38;4.13;;;1.58;;
18136;SDS011;9194;42.632;23.298;2023-08-07T18:34:39;2.45;;;1.60;;
18136;SDS011;9194;42.632;23.298;2023-08-07T18:39:40;1.40;;;1.30;;
18136;SDS011;9194;42.632;23.298;2023-08-07T18:44:42;1.70;;;1.60;;
18136;SDS011;9194;42.632;23.298;2023-08-07T18:49:43;3.80;;;1.65;;
18136;SDS011;9194;42.632;23.298;2023-08-07T18:54:44;2.70;;;1.40;;
18136;SDS011;9194;42.632;23.298;2023-08-07T18:59:45;3.45;;;1.50;;
18136;SDS011;9194;42.632;23.298;2023-08-07T19:04:47;1.60;;;1.50;;
18136;SDS011;9194;42.632;23.298;2023-08-07T19:09:48;3.75;;;1.50;;
18136;SDS011;9194;42.632;23.298;2023-08-07T19:14:49;3.78;;;1.70;;
18136;SDS011;9194;42.632;23.298;2023-08-07T19:19:50;4.10;;;1.63;;
18136;SDS011;9194;42.632;23.298;2023-08-07T19:24:51;1.88;;;1.70;;
18136;SDS011;9194;42.632;23.298;2023-08-07T19:29:53;3.95;;;1.90;;
18136;SDS011;9194;42.632;23.298;2023-08-07T19:34:54;1.90;;;1.80;;
18136;SDS011;9194;42.632;23.298;2023-08-07T19:39:55;1.65;;;1.58;;
18136;SDS011;9194;42.632;23.298;2023-08-07T19:44:57;5.57;;;2.10;;
18136;SDS011;9194;42.632;23.298;2023-08-07T19:49:58;3.08;;;2.17;;
18136;SDS011;9194;42.632;23.298;2023-08-07T19:54:59;2.63;;;1.83;;
18136;SDS011;9194;42.632;23.298;2023-08-07T20:00:00;3.95;;;1.70;;
18136;SDS011;9194;42.632;23.298;2023-08-07T20:05:01;2.88;;;2.33;;
18136;SDS011;9194;42.632;23.298;2023-08-07T20:10:04;2.75;;;2.53;;
18136;SDS011;9194;42.632;23.298;2023-08-07T20:15:10;5.30;;;2.55;;
18136;SDS011;9194;42.632;23.298;2023-08-07T20:20:13;8.48;;;3.35;;
18136;SDS011;9194;42.632;23.298;2023-08-07T20:25:15;3.03;;;2.72;;
18136;SDS011;9194;42.632;23.298;2023-08-07T20:30:16;3.08;;;2.72;;
18136;SDS011;9194;42.632;23.298;2023-08-07T20:35:17;4.63;;;3.10;;
18136;SDS011;9194;42.632;23.298;2023-08-07T20:40:18;6.78;;;2.58;;
18136;SDS011;9194;42.632;23.298;2023-08-07T20:45:19;2.90;;;2.58;;
18136;SDS011;9194;42.632;23.298;2023-08-07T20:50:21;4.40;;;2.80;;
18136;SDS011;9194;42.632;23.298;2023-08-07T20:55:22;5.60;;;2.90;;
18136;SDS011;9194;42.632;23.298;2023-08-07T21:00:23;4.05;;;2.78;;
18136;SDS011;9194;42.632;23.298;2023-08-07T21:05:25;3.30;;;2.83;;
18136;SDS011;9194;42.632;23.298;2023-08-07T21:10:26;7.95;;;3.10;;
18136;SDS011;9194;42.632;23.298;2023-08-07T21:15:27;2.75;;;2.30;;
18136;SDS011;9194;42.632;23.298;2023-08-07T21:20:28;1.77;;;1.67;;
18136;SDS011;9194;42.632;23.298;2023-08-07T21:25:29;3.25;;;1.80;;
18136;SDS011;9194;42.632;23.298;2023-08-07T21:30:31;1.52;;;1.42;;
18136;SDS011;9194;42.632;23.298;2023-08-07T21:35:32;1.50;;;1.40;;
18136;SDS011;9194;42.632;23.298;2023-08-07T21:40:36;1.30;;;1.17;;
18136;SDS011;9194;42.632;23.298;2023-08-07T21:45:39;1.50;;;1.40;;
18136;SDS011;9194;42.632;23.298;2023-08-07T21:50:40;2.45;;;0.90;;
18136;SDS011;9194;42.632;23.298;2023-08-07T21:55:42;1.00;;;1.00;;
18136;SDS011;9194;42.632;23.298;2023-08-07T22:00:43;1.25;;;1.15;;
18136;SDS011;9194;42.632;23.298;2023-08-07T22:05:46;1.10;;;1.10;;
18136;SDS011;9194;42.632;23.298;2023-08-07T22:10:48;3.03;;;1.10;;
18136;SDS011;9194;42.632;23.298;2023-08-07T22:15:49;1.17;;;1.00;;
18136;SDS011;9194;42.632;23.298;2023-08-07T22:20:50;0.80;;;0.80;;
18136;SDS011;9194;42.632;23.298;2023-08-07T22:25:51;1.45;;;1.08;;
18136;SDS011;9194;42.632;23.298;2023-08-07T22:30:52;1.10;;;1.10;;
18136;SDS011;9194;42.632;23.298;2023-08-07T22:35:54;0.90;;;0.90;;
18136;SDS011;9194;42.632;23.298;2023-08-07T22:40:55;1.00;;;1.00;;
18136;SDS011;9194;42.632;23.298;2023-08-07T22:45:56;1.48;;;1.27;;
18136;SDS011;9194;42.632;23.298;2023-08-07T22:50:57;1.23;;;1.20;;
18136;SDS011;9194;42.632;23.298;2023-08-07T22:55:58;5.38;;;1.20;;
18136;SDS011;9194;42.632;23.298;2023-08-07T23:01:00;1.33;;;1.33;;
18136;SDS011;9194;42.632;23.298;2023-08-07T23:06:02;1.10;;;1.10;;
18136;SDS011;9194;42.632;23.298;2023-08-07T23:11:03;1.98;;;1.30;;
18136;SDS011;9194;42.632;23.298;2023-08-07T23:16:04;1.27;;;1.27;;
18136;SDS011;9194;42.632;23.298;2023-08-07T23:21:05;1.27;;;1.25;;
18136;SDS011;9194;42.632;23.298;2023-08-07T23:26:07;3.15;;;1.35;;
18136;SDS011;9194;42.632;23.298;2023-08-07T23:31:08;2.67;;;1.23;;
18136;SDS011;9194;42.632;23.298;2023-08-07T23:36:09;1.90;;;1.50;;
18136;SDS011;9194;42.632;23.298;2023-08-07T23:41:10;2.53;;;1.02;;
18136;SDS011;9194;42.632;23.298;2023-08-07T23:46:11;1.50;;;1.40;;
18136;SDS011;9194;42.632;23.298;2023-08-07T23:51:13;1.48;;;1.38;;
18136;SDS011;9194;42.632;23.298;2023-08-07T23:56:15;1.30;;;1.20;;
